createdAt,value
2022-12-29T00:01:30.449Z,11.34
2022-12-29T00:03:57.199Z,11.35
2022-12-29T00:06:24.633Z,11.36
2022-12-29T00:08:51.427Z,11.38
2022-12-29T00:11:21.397Z,11.39
2022-12-29T00:14:07.572Z,11.39
2022-12-29T00:16:36.295Z,11.45
2022-12-29T00:19:04.766Z,11.46
2022-12-29T00:21:50.156Z,11.50
2022-12-29T00:24:27.405Z,11.53
2022-12-29T00:27:21.837Z,11.55
2022-12-29T00:30:12.434Z,11.56
2022-12-29T00:32:58.103Z,11.58
2022-12-29T00:35:30.924Z,11.59
2022-12-29T00:38:23.339Z,11.61
2022-12-29T00:41:08.871Z,11.63
2022-12-29T00:43:56.955Z,11.65
2022-12-29T00:46:24.082Z,11.65
2022-12-29T00:49:12.761Z,11.68
2022-12-29T00:51:39.507Z,11.65
2022-12-29T00:54:14.646Z,11.69
2022-12-29T00:56:44.729Z,11.69
2022-12-29T00:59:12.752Z,11.70
2022-12-29T01:01:40.400Z,11.69
2022-12-29T01:04:07.398Z,11.70
2022-12-29T01:06:35.015Z,11.66
2022-12-29T01:09:22.762Z,11.68
2022-12-29T01:11:50.123Z,11.71
2022-12-29T01:14:18.021Z,11.68
2022-12-29T01:16:45.647Z,11.62
2022-12-29T01:19:13.889Z,11.56
2022-12-29T01:21:41.397Z,11.53
2022-12-29T01:24:08.451Z,11.50
2022-12-29T01:26:38.101Z,11.47
2022-12-29T01:29:13.951Z,11.47
2022-12-29T01:31:41.223Z,11.43
2022-12-29T01:34:09.206Z,11.39
2022-12-29T01:36:45.000Z,11.34
2022-12-29T01:39:14.524Z,11.30
2022-12-29T01:41:43.073Z,11.25
2022-12-29T01:44:53.230Z,11.23
2022-12-29T01:47:46.484Z,11.19
2022-12-29T01:50:19.781Z,11.17
2022-12-29T01:52:58.111Z,11.17
2022-12-29T01:55:31.118Z,11.15
2022-12-29T01:58:01.919Z,11.14
2022-12-29T02:00:28.366Z,11.16
2022-12-29T02:02:55.263Z,11.08
2022-12-29T02:05:33.231Z,11.19
2022-12-29T02:08:04.099Z,11.17
2022-12-29T02:10:33.854Z,11.20
2022-12-29T02:13:00.296Z,11.21
2022-12-29T02:15:49.691Z,11.23
2022-12-29T02:18:41.539Z,11.25
2022-12-29T02:21:24.232Z,11.25
2022-12-29T02:24:27.713Z,11.27
2022-12-29T02:27:12.995Z,11.29
2022-12-29T02:29:51.662Z,11.30
2022-12-29T02:32:42.475Z,11.32
2022-12-29T02:35:34.965Z,11.34
2022-12-29T02:38:04.397Z,11.34
2022-12-29T02:40:46.923Z,11.34
2022-12-29T02:43:50.273Z,11.36
2022-12-29T02:46:21.390Z,11.33
2022-12-29T02:49:04.251Z,11.35
2022-12-29T02:51:40.826Z,11.34
2022-12-29T02:54:26.591Z,11.31
2022-12-29T02:56:56.635Z,11.29
2022-12-29T02:59:23.601Z,11.31
2022-12-29T03:02:38.189Z,11.32
2022-12-29T03:05:32.592Z,11.31
2022-12-29T03:09:18.403Z,11.31
2022-12-29T03:12:11.373Z,11.26
2022-12-29T03:15:21.356Z,11.25
2022-12-29T03:18:06.189Z,11.22
2022-12-29T03:20:40.688Z,11.22
2022-12-29T03:23:08.277Z,11.21
2022-12-29T03:25:40.743Z,11.23
2022-12-29T03:28:23.403Z,11.22
2022-12-29T03:30:50.309Z,11.19
2022-12-29T03:33:22.967Z,11.15
2022-12-29T03:35:52.050Z,11.15
2022-12-29T03:38:29.959Z,11.13
2022-12-29T03:40:59.720Z,11.13
2022-12-29T03:43:28.095Z,11.13
2022-12-29T03:45:54.514Z,11.09
2022-12-29T03:48:21.062Z,11.14
2022-12-29T03:50:47.595Z,11.13
2022-12-29T03:53:14.267Z,11.11
2022-12-29T03:55:40.905Z,11.10
2022-12-29T03:58:07.737Z,11.06
2022-12-29T04:00:34.121Z,11.03
2022-12-29T04:03:01.199Z,11.00
2022-12-29T04:05:27.801Z,10.98
2022-12-29T04:07:56.893Z,10.97
2022-12-29T04:10:24.824Z,11.00
2022-12-29T04:12:51.651Z,11.00
2022-12-29T04:15:17.991Z,11.03
2022-12-29T04:17:45.114Z,11.02
2022-12-29T04:20:33.238Z,11.02
2022-12-29T04:23:07.300Z,11.02
2022-12-29T04:25:34.492Z,11.00
2022-12-29T04:28:01.687Z,11.01
2022-12-29T04:30:28.818Z,11.01
2022-12-29T04:32:56.062Z,11.01
2022-12-29T04:35:22.537Z,11.01
2022-12-29T04:37:49.009Z,11.02
2022-12-29T04:40:18.895Z,10.99
2022-12-29T04:42:45.657Z,11.02
2022-12-29T04:45:12.487Z,11.01
2022-12-29T04:47:40.893Z,11.02
2022-12-29T04:50:08.323Z,11.02
2022-12-29T04:52:35.221Z,11.03
2022-12-29T04:55:02.140Z,11.02
2022-12-29T04:57:31.788Z,11.03
2022-12-29T04:59:58.343Z,11.03
2022-12-29T05:02:25.488Z,11.01
2022-12-29T05:04:52.293Z,10.99
2022-12-29T05:07:19.260Z,10.99
2022-12-29T05:09:46.866Z,10.99
2022-12-29T05:12:13.691Z,10.97
2022-12-29T05:14:40.317Z,10.94
2022-12-29T05:17:06.694Z,10.92
2022-12-29T05:19:37.955Z,10.87
2022-12-29T05:22:05.198Z,10.85
2022-12-29T05:24:31.656Z,10.81
2022-12-29T05:27:03.807Z,10.77
2022-12-29T05:29:30.417Z,10.71
2022-12-29T05:31:56.951Z,10.64
2022-12-29T05:34:23.635Z,10.60
2022-12-29T05:36:50.898Z,10.60
2022-12-29T05:39:17.668Z,10.57
2022-12-29T05:41:53.284Z,10.56
2022-12-29T05:44:23.521Z,10.54
2022-12-29T05:46:49.998Z,10.52
2022-12-29T05:49:17.694Z,10.49
2022-12-29T05:51:45.471Z,10.48
2022-12-29T05:54:12.459Z,10.44
2022-12-29T05:56:39.279Z,10.41
2022-12-29T05:59:05.950Z,10.40
2022-12-29T06:01:32.552Z,10.38
2022-12-29T06:04:00.222Z,10.36
2022-12-29T06:06:27.188Z,10.36
2022-12-29T06:08:54.190Z,10.35
2022-12-29T06:11:20.604Z,10.34
2022-12-29T06:13:47.122Z,10.36
2022-12-29T06:16:13.998Z,10.36
2022-12-29T06:18:40.414Z,10.37
2022-12-29T06:21:07.389Z,10.38
2022-12-29T06:23:33.934Z,10.36
2022-12-29T06:26:00.495Z,10.34
2022-12-29T06:28:26.995Z,10.31
2022-12-29T06:31:16.579Z,10.31
2022-12-29T06:33:48.243Z,10.28
2022-12-29T06:36:28.975Z,10.26
2022-12-29T06:39:06.739Z,10.24
2022-12-29T06:41:33.696Z,10.18
2022-12-29T06:44:02.649Z,10.18
2022-12-29T06:46:29.210Z,10.16
2022-12-29T06:49:01.051Z,10.17
2022-12-29T06:51:27.474Z,10.17
2022-12-29T06:54:00.689Z,10.17
2022-12-29T06:56:27.644Z,10.18
2022-12-29T06:58:54.695Z,10.19
2022-12-29T07:01:21.253Z,10.21
2022-12-29T07:03:51.458Z,10.21
2022-12-29T07:06:17.824Z,10.23
2022-12-29T07:08:44.389Z,10.25
2022-12-29T07:11:11.120Z,10.27
2022-12-29T07:13:40.507Z,10.31
2022-12-29T07:16:12.282Z,10.32
2022-12-29T07:21:20.617Z,10.36
2022-12-29T07:23:47.731Z,10.33
2022-12-29T07:26:20.537Z,10.34
2022-12-29T07:28:48.335Z,10.36
2022-12-29T07:31:17.598Z,10.31
2022-12-29T07:33:45.383Z,10.31
2022-12-29T07:36:13.482Z,10.28
2022-12-29T07:38:40.920Z,10.26
2022-12-29T07:41:07.666Z,10.25
2022-12-29T07:46:56.727Z,10.17
2022-12-29T07:49:25.525Z,10.15
2022-12-29T07:51:52.142Z,10.12
2022-12-29T07:54:22.339Z,10.09
2022-12-29T07:56:48.966Z,10.05
2022-12-29T07:59:18.585Z,10.04
2022-12-29T08:01:45.323Z,10.02
2022-12-29T08:04:12.105Z,10.06
2022-12-29T08:06:40.671Z,10.06
2022-12-29T08:09:16.496Z,10.09
2022-12-29T08:11:46.476Z,10.12
2022-12-29T08:14:14.907Z,10.12
2022-12-29T08:16:41.858Z,10.15
2022-12-29T08:19:08.223Z,10.16
2022-12-29T08:21:35.015Z,10.23
2022-12-29T08:24:01.705Z,10.17
2022-12-29T08:26:29.327Z,10.32
2022-12-29T08:28:56.717Z,10.33
2022-12-29T08:31:26.906Z,10.36
2022-12-29T08:33:53.450Z,10.34
2022-12-29T08:36:44.053Z,10.36
2022-12-29T08:39:11.362Z,10.35
2022-12-29T08:41:40.231Z,10.36
2022-12-29T08:44:09.947Z,10.33
2022-12-29T08:46:36.929Z,10.33
2022-12-29T08:49:05.103Z,10.32
2022-12-29T08:51:31.624Z,10.30
2022-12-29T08:53:58.049Z,10.28
2022-12-29T08:56:32.227Z,10.29
2022-12-29T08:59:08.233Z,10.26
2022-12-29T09:01:37.589Z,10.24
2022-12-29T09:04:16.254Z,10.27
2022-12-29T09:06:44.538Z,10.29
2022-12-29T09:09:11.324Z,10.28
2022-12-29T09:11:43.341Z,10.30
2022-12-29T09:14:12.567Z,10.28
2022-12-29T09:16:39.769Z,10.31
2022-12-29T09:19:06.214Z,10.29
2022-12-29T09:21:32.821Z,10.23
2022-12-29T09:23:59.221Z,10.18
2022-12-29T09:26:33.525Z,10.14
2022-12-29T09:29:00.043Z,10.06
2022-12-29T09:31:26.645Z,9.99
2022-12-29T09:33:54.623Z,9.93
2022-12-29T09:36:28.471Z,9.90
2022-12-29T09:39:04.538Z,9.85
2022-12-29T09:41:40.079Z,9.85
2022-12-29T09:44:22.003Z,9.85
2022-12-29T09:46:54.288Z,9.84
2022-12-29T09:49:36.277Z,9.83
2022-12-29T09:52:41.072Z,9.79
2022-12-29T09:55:36.198Z,9.78
2022-12-29T09:58:14.475Z,9.73
2022-12-29T10:01:03.122Z,9.74
2022-12-29T10:03:46.740Z,9.75
2022-12-29T10:07:28.133Z,9.77
2022-12-29T10:09:49.623Z,9.74
2022-12-29T10:12:47.323Z,9.72
2022-12-29T10:15:36.620Z,9.74
2022-12-29T10:19:04.670Z,9.75
2022-12-29T10:22:14.796Z,9.77
2022-12-29T10:24:46.391Z,9.81
2022-12-29T10:27:16.308Z,9.82
2022-12-29T10:29:56.810Z,9.88
2022-12-29T10:32:29.575Z,9.91
2022-12-29T10:35:24.180Z,9.97
2022-12-29T10:38:05.976Z,10.03
2022-12-29T10:40:44.062Z,10.07
2022-12-29T10:43:30.667Z,10.07
2022-12-29T10:46:04.546Z,10.10
2022-12-29T10:48:37.433Z,10.12
2022-12-29T10:51:08.416Z,10.15
2022-12-29T10:54:05.033Z,10.18
2022-12-29T10:56:36.653Z,10.17
2022-12-29T10:59:17.075Z,10.22
2022-12-29T11:02:12.963Z,10.29
2022-12-29T11:05:09.962Z,10.38
2022-12-29T11:07:37.289Z,10.56
2022-12-29T11:10:31.538Z,10.79
2022-12-29T11:13:26.284Z,10.98
2022-12-29T11:15:53.402Z,11.21
2022-12-29T11:18:27.444Z,11.24
2022-12-29T11:21:02.830Z,11.22
2022-12-29T11:23:36.435Z,11.17
2022-12-29T11:26:22.103Z,11.22
2022-12-29T11:29:23.398Z,11.19
2022-12-29T11:31:53.732Z,11.15
2022-12-29T11:34:26.521Z,11.11
2022-12-29T11:37:00.008Z,11.08
2022-12-29T11:39:34.807Z,11.06
2022-12-29T11:42:03.707Z,11.04
2022-12-29T11:44:39.048Z,11.06
2022-12-29T11:47:10.689Z,11.06
2022-12-29T11:49:37.260Z,11.06
2022-12-29T11:52:06.647Z,11.05
2022-12-29T11:54:37.627Z,11.00
2022-12-29T11:57:15.452Z,11.00
2022-12-29T11:59:56.039Z,11.22
2022-12-29T12:02:42.881Z,11.86
2022-12-29T12:05:15.688Z,12.55
2022-12-29T12:07:43.713Z,13.12
2022-12-29T12:10:24.598Z,13.67
2022-12-29T12:13:11.339Z,13.87
2022-12-29T12:15:47.491Z,13.66
2022-12-29T12:18:26.056Z,13.48
2022-12-29T12:21:00.695Z,13.35
2022-12-29T12:23:48.213Z,13.28
2022-12-29T12:26:15.392Z,13.23
2022-12-29T12:28:59.765Z,13.08
2022-12-29T12:31:41.199Z,13.18
2022-12-29T12:34:17.308Z,13.19
2022-12-29T12:37:01.309Z,13.24
2022-12-29T12:39:45.200Z,13.41
2022-12-29T12:42:23.770Z,13.48
2022-12-29T12:45:25.714Z,13.26
2022-12-29T12:48:32.643Z,12.92
2022-12-29T12:51:42.970Z,12.57
2022-12-29T12:54:22.307Z,12.28
2022-12-29T12:57:03.841Z,12.06
2022-12-29T12:59:45.001Z,11.90
2022-12-29T13:02:29.108Z,11.84
2022-12-29T13:05:26.985Z,11.72
2022-12-29T13:07:56.839Z,11.61
2022-12-29T13:10:53.053Z,11.54
2022-12-29T13:13:57.033Z,11.45
2022-12-29T13:17:00.720Z,11.41
2022-12-29T13:19:39.355Z,11.39
2022-12-29T13:22:17.669Z,11.36
2022-12-29T13:25:21.456Z,11.29
2022-12-29T13:28:40.082Z,11.25
2022-12-29T13:31:30.660Z,11.21
2022-12-29T13:34:22.321Z,11.23
2022-12-29T13:37:05.080Z,11.23
2022-12-29T13:39:39.528Z,11.23
2022-12-29T13:42:06.406Z,11.22
2022-12-29T13:44:38.290Z,11.28
2022-12-29T13:47:16.600Z,11.34
2022-12-29T13:49:44.186Z,11.36
2022-12-29T13:52:25.167Z,11.36
2022-12-29T13:55:25.322Z,11.34
2022-12-29T13:58:04.914Z,11.29
2022-12-29T14:00:44.999Z,11.23
2022-12-29T14:03:30.793Z,11.23
2022-12-29T14:06:25.589Z,11.23
2022-12-29T14:08:58.691Z,11.21
2022-12-29T14:11:32.549Z,11.19
2022-12-29T14:14:01.655Z,11.20
2022-12-29T14:16:33.276Z,11.19
2022-12-29T14:19:13.595Z,11.18
2022-12-29T14:24:45.490Z,11.00
2022-12-29T14:27:14.741Z,10.83
2022-12-29T14:29:50.323Z,10.72
2022-12-29T14:32:28.771Z,10.66
2022-12-29T14:34:57.984Z,10.59
2022-12-29T14:37:41.963Z,10.48
2022-12-29T14:40:34.639Z,10.41
2022-12-29T14:43:12.412Z,10.39
2022-12-29T14:45:53.744Z,10.30
2022-12-29T14:52:33.566Z,10.17
2022-12-29T14:55:18.172Z,10.14
2022-12-29T14:57:54.125Z,10.08
2022-12-29T15:00:37.087Z,10.03
2022-12-29T15:03:10.071Z,9.95
2022-12-29T15:05:49.641Z,10.02
2022-12-29T15:08:26.678Z,10.01
2022-12-29T15:11:21.492Z,10.00
2022-12-29T15:13:52.205Z,10.00
2022-12-29T15:16:40.276Z,9.98
2022-12-29T15:19:25.752Z,9.99
2022-12-29T15:21:53.944Z,10.00
2022-12-29T15:24:21.763Z,10.03
2022-12-29T15:26:52.771Z,10.08
2022-12-29T15:29:41.937Z,10.08
2022-12-29T15:32:17.088Z,10.07
2022-12-29T15:34:48.319Z,10.07
2022-12-29T15:37:32.753Z,10.07
2022-12-29T15:40:02.472Z,10.05
2022-12-29T15:42:50.929Z,10.02
2022-12-29T15:45:17.859Z,10.00
2022-12-29T15:47:50.148Z,10.00
2022-12-29T15:50:25.026Z,9.97
2022-12-29T15:52:52.270Z,10.00
2022-12-29T15:55:39.523Z,9.99
2022-12-29T15:58:18.533Z,10.02
2022-12-29T16:00:49.878Z,10.02
2022-12-29T16:03:18.054Z,9.99
2022-12-29T16:05:52.919Z,10.02
2022-12-29T16:08:25.410Z,10.02
2022-12-29T16:10:55.321Z,10.02
2022-12-29T16:13:29.704Z,10.01
2022-12-29T16:16:03.264Z,10.04
2022-12-29T16:18:38.091Z,10.02
2022-12-29T16:21:35.187Z,10.03
2022-12-29T16:24:14.447Z,9.99
2022-12-29T16:26:48.216Z,9.96
2022-12-29T16:29:15.748Z,9.98
2022-12-29T16:32:01.875Z,9.96
2022-12-29T16:34:40.841Z,9.94
2022-12-29T16:37:38.923Z,9.90
2022-12-29T16:40:38.582Z,9.89
2022-12-29T16:43:05.797Z,9.84
2022-12-29T16:46:00.922Z,9.83
2022-12-29T16:48:30.716Z,9.81
2022-12-29T16:51:30.790Z,9.80
2022-12-29T16:53:58.064Z,9.78
2022-12-29T16:56:44.493Z,9.75
2022-12-29T16:59:43.447Z,9.69
2022-12-29T17:02:20.610Z,9.68
2022-12-29T17:04:49.541Z,9.64
2022-12-29T17:07:18.755Z,9.59
2022-12-29T17:09:45.475Z,9.55
2022-12-29T17:12:19.158Z,9.52
2022-12-29T17:14:53.642Z,9.51
2022-12-29T17:17:31.705Z,9.49
2022-12-29T17:20:03.835Z,9.43
2022-12-29T17:22:30.337Z,9.41
2022-12-29T17:24:59.473Z,9.38
2022-12-29T17:27:38.775Z,9.35
2022-12-29T17:30:17.195Z,9.31
2022-12-29T17:32:52.117Z,9.30
2022-12-29T17:35:21.377Z,9.28
2022-12-29T17:37:49.397Z,9.24
2022-12-29T17:40:22.319Z,9.20
2022-12-29T17:42:53.710Z,9.17
2022-12-29T17:45:29.857Z,9.13
2022-12-29T17:47:57.392Z,9.11
2022-12-29T17:50:26.057Z,9.10
2022-12-29T17:53:00.815Z,9.09
2022-12-29T17:55:36.749Z,9.06
2022-12-29T17:58:18.595Z,9.01
2022-12-29T18:00:46.036Z,9.00
2022-12-29T18:03:18.761Z,8.95
2022-12-29T18:05:45.542Z,8.97
2022-12-29T18:08:12.393Z,8.90
2022-12-29T18:10:39.987Z,8.89
2022-12-29T18:13:07.211Z,8.85
2022-12-29T18:15:36.367Z,8.86
2022-12-29T18:18:14.965Z,8.84
2022-12-29T18:20:43.305Z,8.79
2022-12-29T18:23:20.258Z,8.79
2022-12-29T18:26:13.254Z,8.78
2022-12-29T18:28:40.300Z,8.79
2022-12-29T18:31:16.648Z,8.76
2022-12-29T18:33:43.053Z,8.74
2022-12-29T18:36:12.052Z,8.73
2022-12-29T18:38:38.570Z,8.72
2022-12-29T18:41:05.424Z,8.72
2022-12-29T18:43:31.823Z,8.73
2022-12-29T18:45:58.283Z,8.71
2022-12-29T18:48:24.737Z,8.70
2022-12-29T18:50:52.024Z,8.71
2022-12-29T18:53:24.869Z,8.71
2022-12-29T18:55:52.759Z,8.67
2022-12-29T18:58:22.065Z,8.67
2022-12-29T19:01:00.557Z,8.64
2022-12-29T19:03:31.137Z,8.64
2022-12-29T19:05:58.628Z,8.65
2022-12-29T19:08:29.206Z,8.65
2022-12-29T19:10:55.793Z,8.53
2022-12-29T19:13:38.886Z,8.62
2022-12-29T19:19:05.914Z,8.64
2022-12-29T19:21:39.275Z,8.63
2022-12-29T19:24:06.898Z,8.61
2022-12-29T19:32:29.363Z,8.46
2022-12-29T19:34:55.803Z,8.54
2022-12-29T19:37:24.538Z,8.56
2022-12-29T19:39:50.967Z,8.52
2022-12-29T19:42:17.376Z,8.52
2022-12-29T19:44:43.751Z,8.51
2022-12-29T19:47:10.231Z,8.46
2022-12-29T19:49:36.762Z,8.48
2022-12-29T19:52:05.103Z,8.49
2022-12-29T19:54:31.621Z,8.46
2022-12-29T19:57:36.642Z,8.43
2022-12-29T20:00:04.690Z,8.42
2022-12-29T20:02:33.536Z,8.42
2022-12-29T20:05:02.577Z,8.40
2022-12-29T20:08:01.776Z,8.40
2022-12-29T20:10:28.341Z,8.36
2022-12-29T20:12:54.932Z,8.35
2022-12-29T20:15:21.419Z,8.32
2022-12-29T20:18:15.717Z,8.23
2022-12-29T20:20:41.757Z,8.29
2022-12-29T20:23:08.597Z,8.28
2022-12-29T20:25:44.727Z,8.29
2022-12-29T20:28:13.362Z,8.28
2022-12-29T20:30:40.068Z,8.26
2022-12-29T20:33:08.531Z,8.20
2022-12-29T20:35:36.169Z,8.29
2022-12-29T20:38:02.829Z,8.28
2022-12-29T20:40:31.261Z,8.27
2022-12-29T20:43:02.751Z,8.29
2022-12-29T20:45:38.810Z,8.32
2022-12-29T20:48:05.350Z,8.33
2022-12-29T20:50:42.124Z,8.33
2022-12-29T20:53:15.574Z,8.32
2022-12-29T20:55:48.777Z,8.32
2022-12-29T21:01:18.158Z,8.31
2022-12-29T21:09:23.407Z,8.34
2022-12-29T21:11:51.349Z,8.37
2022-12-29T21:14:17.738Z,8.38
2022-12-29T21:19:28.766Z,8.35
2022-12-29T21:22:01.005Z,8.33
2022-12-29T21:24:33.004Z,8.34
2022-12-29T21:27:01.873Z,8.32
2022-12-29T21:30:15.096Z,8.30
2022-12-29T21:32:50.726Z,8.25
2022-12-29T21:35:17.342Z,8.20
2022-12-29T21:37:44.182Z,8.20
2022-12-29T21:40:10.985Z,8.18
2022-12-29T21:42:51.233Z,8.16
2022-12-29T21:45:30.138Z,8.14
2022-12-29T21:48:21.235Z,8.12
2022-12-29T21:51:28.469Z,8.09
2022-12-29T21:54:36.172Z,8.05
2022-12-29T21:57:03.489Z,8.00
2022-12-29T21:59:48.539Z,7.97
2022-12-29T22:02:42.819Z,7.93
2022-12-29T22:05:33.920Z,7.90
2022-12-29T22:08:20.844Z,7.88
2022-12-29T22:11:07.586Z,7.87
2022-12-29T22:13:39.224Z,7.88
2022-12-29T22:16:08.439Z,7.86
2022-12-29T22:18:35.098Z,7.84
2022-12-29T22:21:06.185Z,7.82
2022-12-29T22:23:32.913Z,7.79
2022-12-29T22:26:07.254Z,7.80
2022-12-29T22:28:41.820Z,7.79
2022-12-29T22:31:21.924Z,7.77
2022-12-29T22:33:48.359Z,7.77
2022-12-29T22:36:14.700Z,7.77
2022-12-29T22:38:41.155Z,7.77
2022-12-29T22:41:09.772Z,7.76
2022-12-29T22:43:36.151Z,7.74
2022-12-29T22:46:16.420Z,7.73
2022-12-29T22:48:54.280Z,7.72
2022-12-29T22:51:28.845Z,7.70
2022-12-29T22:53:55.555Z,7.68
2022-12-29T22:56:26.330Z,7.67
2022-12-29T22:58:58.142Z,7.68
2022-12-29T23:01:28.429Z,7.66
2022-12-29T23:04:10.293Z,7.64
2022-12-29T23:06:51.876Z,7.67
2022-12-29T23:09:20.958Z,7.68
2022-12-29T23:12:04.662Z,7.69
2022-12-29T23:14:37.015Z,7.67
2022-12-29T23:17:03.506Z,7.64
2022-12-29T23:19:29.878Z,7.63
2022-12-29T23:21:56.725Z,7.63
2022-12-29T23:24:28.266Z,7.58
2022-12-29T23:26:55.129Z,7.54
2022-12-29T23:29:29.973Z,7.53
2022-12-29T23:31:56.517Z,7.47
2022-12-29T23:34:23.180Z,7.49
2022-12-29T23:36:52.745Z,7.47
2022-12-29T23:39:23.300Z,7.44
2022-12-29T23:41:50.771Z,7.43
2022-12-29T23:44:17.343Z,7.46
2022-12-29T23:46:46.541Z,7.46
2022-12-29T23:49:13.757Z,7.39
2022-12-29T23:51:40.210Z,7.40
2022-12-29T23:54:06.763Z,7.39
2022-12-29T23:56:33.563Z,7.37
2022-12-29T23:59:04.950Z,7.33
